KIND/IND METAR and TAF weather

Enter ICAO airport designator
Station Type Date Time Source
KIND METAR 2020/07/04 00:54 UTC NOAA

KIND 040054Z 02007KT 10SM FEW070 FEW250 29/17 A2999 RMK AO2 SLP146 T02940172


Station Type Date Time Source
KIND Decoded METAR 2020/07/04 00:54 UTC NOAA

INDIANAPOLIS INTERNATIONAL AIRPORT , IN, United States (KIND) 39-43N 86-17W 242M
Jul 03, 2020 - 08:54 PM EDT / 2020.07.04 0054 UTC
Wind: from the NNE (020 degrees) at 8 MPH (7 KT):0
Visibility: 10 mile(s):0
Sky conditions: mostly clear
Temperature: 84.9 F (29.4 C)
Dew Point: 63.0 F (17.2 C)
Relative Humidity: 47%
Pressure (altimeter): 29.99 in. Hg (1015 hPa)
ob: KIND 040054Z 02007KT 10SM FEW070 FEW250 29/17 A2999 RMK AO2 SLP146 T02940172
cycle: 1

Station Type Date Time Source
KIND TAF 2020/07/03 20:24 UTC NOAA

TAF
AMD KIND 032021Z 0320/0424 04006KT P6SM SCT060
FM040100 01004KT P6SM FEW250
FM041600 05005KT P6SM SCT050

Example: see airport list